Ranyus Sea — 9LU2420 — position and weather

sailwx.info

Track history (hours):
 
Tides and Currents Weather Stations Pressure Air Temp Water Temp Dewpoint Dewpoint Depression Visibility Wind Speed Wind Dir Waves Ship Positions

Ranyus Sea

Last reported at 2017-Dec-15 02:31 UTC. Time now 2017-Dec-18 05:03 UTC.
Position N 43°32' E 028°44'.

Length 98 m; draft 5.6 m.

Type: Cargo ship. MMSI: 667001617.

Date/timePositionNaut miles runAvg speedWind from/ knotsBaromVisibWave heightAir tempDewpointWater temp
2017-Dec-15 02:31N 43°32' E 028°44'13 8.8
2017-Dec-15 01:01N 43°46' E 028°44'5 9.2
2017-Dec-15 00:31N 43°50' E 028°44'18 3.0
2017-Dec-14 18:28N 44°08' E 028°39'0 0.0
2017-Dec-14 17:58N 44°08' E 028°39'0 0.0
2017-Dec-14 17:28N 44°08' E 028°39'0 0.0
2017-Dec-14 16:58N 44°08' E 028°39'0 0.0
2017-Dec-14 16:28N 44°08' E 028°39'0 0.0
2017-Dec-14 15:58N 44°08' E 028°39'0 0.0
2017-Dec-14 07:45N 44°08' E 028°39'0 0.0
2017-Dec-14 07:30N 44°08' E 028°39'0 0.0
2017-Dec-14 07:00N 44°08' E 028°39'0 0.0
2017-Dec-14 06:30N 44°08' E 028°39'0 0.0
2017-Dec-14 06:00N 44°08' E 028°39'0 0.0
2017-Dec-14 05:27N 44°08' E 028°39'0 0.0
2017-Dec-14 05:00N 44°08' E 028°39'0 0.0
2017-Dec-14 04:30N 44°08' E 028°39'0 0.0
2017-Dec-14 04:00N 44°08' E 028°39'0 0.0
2017-Dec-14 03:30N 44°08' E 028°39'0 0.0
2017-Dec-14 03:00N 44°08' E 028°39'0 0.0
2017-Dec-14 02:30N 44°08' E 028°39'0 0.0
2017-Dec-14 01:45N 44°08' E 028°39'0 0.0
2017-Dec-14 01:30N 44°08' E 028°39'0 0.0
2017-Dec-14 01:00N 44°08' E 028°39'0 0.0
2017-Dec-14 00:30N 44°08' E 028°39'0 0.0
2017-Dec-13 23:57N 44°08' E 028°39'0 0.0
2017-Dec-13 23:27N 44°08' E 028°39'0 0.0
2017-Dec-13 22:57N 44°08' E 028°39'0 0.0
2017-Dec-13 22:30N 44°08' E 028°39'0 0.0
2017-Dec-13 22:00N 44°08' E 028°39'0 0.0
2017-Dec-13 21:27N 44°08' E 028°39'0 0.0
2017-Dec-13 21:00N 44°08' E 028°39'0 0.0
2017-Dec-13 20:27N 44°08' E 028°39'0 0.0
2017-Dec-13 20:00N 44°08' E 028°39'0 0.0
2017-Dec-13 19:30N 44°08' E 028°39'0 0.0
2017-Dec-13 18:57N 44°08' E 028°39'0 0.0
2017-Dec-13 18:30N 44°08' E 028°39'0 0.0
2017-Dec-13 18:00N 44°08' E 028°39'0 0.0
2017-Dec-13 17:30N 44°08' E 028°39'0 0.0
2017-Dec-13 17:00N 44°08' E 028°39'0 0.0
2017-Dec-13 16:30N 44°08' E 028°39'0 0.0
2017-Dec-13 16:00N 44°08' E 028°39'0 0.0
2017-Dec-13 15:30N 44°08' E 028°39'0 0.0
2017-Dec-13 15:00N 44°08' E 028°39'0 0.0
2017-Dec-13 14:30N 44°08' E 028°39'0 0.0
2017-Dec-13 13:48N 44°08' E 028°39'0 0.1
2017-Dec-13 13:24N 44°08' E 028°39'0 0.0
2017-Dec-13 12:57N 44°08' E 028°39'0 0.0
2017-Dec-13 12:21N 44°08' E 028°39'0 0.0
2017-Dec-13 11:52N 44°08' E 028°39'0 0.0
2017-Dec-13 11:28N 44°08' E 028°39'0 0.0
2017-Dec-12 14:11N 44°08' E 028°39'0 0.0
2017-Dec-12 13:59N 44°08' E 028°39'0 0.0
2017-Dec-12 13:29N 44°08' E 028°39'0 0.0
2017-Dec-12 12:59N 44°08' E 028°39'0 0.0
2017-Dec-12 12:20N 44°08' E 028°39'0 0.0
2017-Dec-12 11:59N 44°08' E 028°39'0 0.0
2017-Dec-12 11:29N 44°08' E 028°39'0 0.0
2017-Dec-12 10:56N 44°08' E 028°39'0 0.0
2017-Dec-12 10:29N 44°08' E 028°39'0 0.0
2017-Dec-12 09:59N 44°08' E 028°39'0 0.0
2017-Dec-12 09:29N 44°08' E 028°39'0 0.0
2017-Dec-12 08:59N 44°08' E 028°39'0 0.0
2017-Dec-12 08:29N 44°08' E 028°39'0 0.0
2017-Dec-12 07:59N 44°08' E 028°39'0 0.0
2017-Dec-12 07:29N 44°08' E 028°39'0 0.8
2017-Dec-12 07:00N 44°08' E 028°39'2 3.2
2017-Dec-12 06:30N 44°07' E 028°41'4 7.6
2017-Dec-12 06:00N 44°04' E 028°45'4 8.5
2017-Dec-12 05:30N 44°01' E 028°48'4 8.2
2017-Dec-12 05:00N 43°57' E 028°50'4 8.6
2017-Dec-12 04:30N 43°53' E 028°50'4 8.4
2017-Dec-12 04:00N 43°49' E 028°50'4 8.7
2017-Dec-12 03:30N 43°44' E 028°50'5 9.4
2017-Dec-12 03:00N 43°40' E 028°50'161 9.0
2017-Dec-11 09:09N 40°59' E 028°60'1 6.1
2017-Dec-11 08:57N 40°58' E 028°60'2 3.8
2017-Dec-11 08:30N 40°56' E 029°00'2 3.8
2017-Dec-11 08:00N 40°54' E 029°00'4 7.3
2017-Dec-11 07:30N 40°51' E 029°03'4 7.3
2017-Dec-11 07:00N 40°50' E 029°07'3 6.1
2017-Dec-11 06:30N 40°51' E 029°11'2 2.9
2017-Dec-11 05:56N 40°52' E 029°13'0 0.1
2017-Dec-11 05:26N 40°52' E 029°13'0 0.1
2017-Dec-11 04:56N 40°52' E 029°13'0 0.0
2017-Dec-11 04:26N 40°52' E 029°13'0 0.0
2017-Dec-11 03:56N 40°52' E 029°13'0 0.1
2017-Dec-11 03:26N 40°52' E 029°13'0 0.0
2017-Dec-11 02:56N 40°52' E 029°13'0 0.0
2017-Dec-11 02:26N 40°52' E 029°13'0 0.0
2017-Dec-11 01:56N 40°52' E 029°13'0 0.0
2017-Dec-11 01:26N 40°52' E 029°13'0 0.0
2017-Dec-11 00:50N 40°52' E 029°13'0 0.0
2017-Dec-11 00:20N 40°52' E 029°13'0 0.2
2017-Dec-10 23:56N 40°52' E 029°13'0 0.0
2017-Dec-10 23:26N 40°52' E 029°13'0 0.1
2017-Dec-10 22:56N 40°52' E 029°13'0 0.0
2017-Dec-10 22:20N 40°52' E 029°13'0 0.0
2017-Dec-10 21:50N 40°52' E 029°13'0 0.0
2017-Dec-10 21:20N 40°52' E 029°13'0 0.0
2017-Dec-10 20:56N 40°52' E 029°13'0 0.1
2017-Dec-10 20:26N 40°52' E 029°13'0 0.0
2017-Dec-10 19:56N 40°52' E 029°13'0 0.1
2017-Dec-10 19:26N 40°52' E 029°13'0 0.0
2017-Dec-10 18:56N 40°52' E 029°13'0 0.0
2017-Dec-10 18:08N 40°52' E 029°13'0 0.0
2017-Dec-10 17:44N 40°52' E 029°13'0 0.0
2017-Dec-10 17:26N 40°52' E 029°13'0 0.0
2017-Dec-10 16:56N 40°52' E 029°13'0 0.0
2017-Dec-10 16:14N 40°52' E 029°13'0 0.1
2017-Dec-10 15:56N 40°52' E 029°13'0 0.1
2017-Dec-10 15:14N 40°52' E 029°13'0 0.0
2017-Dec-10 14:56N 40°52' E 029°13'0 0.0
2017-Dec-10 14:20N 40°52' E 029°13'0 0.1
2017-Dec-10 13:50N 40°52' E 029°13'0 0.0
2017-Dec-10 13:26N 40°52' E 029°13'0 0.1
2017-Dec-10 12:56N 40°52' E 029°13'0 0.1
2017-Dec-10 12:26N 40°52' E 029°13'0 0.1
2017-Dec-10 11:50N 40°52' E 029°13'0 0.1
2017-Dec-10 11:20N 40°52' E 029°13'0 0.0
2017-Dec-10 10:56N 40°52' E 029°13'0 0.1
2017-Dec-10 10:26N 40°52' E 029°13'0 0.1
2017-Dec-10 09:56N 40°52' E 029°13'0 0.0
2017-Dec-10 09:20N 40°52' E 029°13'0 0.0
2017-Dec-10 08:56N 40°52' E 029°13'0 0.1
2017-Dec-10 08:14N 40°52' E 029°13'0 0.1
2017-Dec-10 07:54N 40°52' E 029°13'0 0.0
2017-Dec-10 07:24N 40°52' E 029°13'0 0.0
2017-Dec-10 07:00N 40°52' E 029°13'0 0.1
2017-Dec-10 06:30N 40°52' E 029°13'0 0.1
2017-Dec-10 05:54N 40°52' E 029°13'0 0.1
2017-Dec-10 05:30N 40°52' E 029°13'0 0.0
2017-Dec-10 05:00N 40°52' E 029°13'0 0.0
2017-Dec-10 04:30N 40°52' E 029°13'0 0.0
2017-Dec-10 04:00N 40°52' E 029°13'0 0.0
2017-Dec-10 03:30N 40°52' E 029°13'0 0.0
2017-Dec-10 03:00N 40°52' E 029°13'0 0.0
2017-Dec-10 02:24N 40°52' E 029°13'0 0.0
2017-Dec-10 02:00N 40°52' E 029°13'0 0.1
2017-Dec-10 01:30N 40°52' E 029°13'0 0.1
2017-Dec-10 01:00N 40°52' E 029°13'0 0.0
2017-Dec-10 00:30N 40°52' E 029°13'0 0.0
2017-Dec-09 23:54N 40°52' E 029°13'0 0.0
2017-Dec-09 23:30N 40°52' E 029°13'0 0.0
2017-Dec-09 22:54N 40°52' E 029°13'0 0.0
2017-Dec-09 22:30N 40°52' E 029°13'0 0.0
2017-Dec-09 22:00N 40°52' E 029°13'0 0.0
2017-Dec-09 21:30N 40°52' E 029°13'0 0.0
2017-Dec-09 20:54N 40°52' E 029°13'0 0.0
2017-Dec-09 20:30N 40°52' E 029°13'0 0.0
2017-Dec-09 20:00N 40°52' E 029°13'0 0.0
2017-Dec-09 19:30N 40°52' E 029°13'0 0.0
2017-Dec-09 19:00N 40°52' E 029°13'0 0.0
2017-Dec-09 18:30N 40°52' E 029°13'0 0.0
2017-Dec-09 17:54N 40°52' E 029°13'0 0.1
2017-Dec-09 17:30N 40°52' E 029°13'0 0.0
2017-Dec-09 17:00N 40°52' E 029°13'0 0.0
2017-Dec-09 16:30N 40°52' E 029°13'0 0.0
2017-Dec-09 16:00N 40°52' E 029°13'2 4.3
2017-Dec-09 15:30N 40°51' E 029°15'1 1.2
2017-Dec-09 14:49N 40°51' E 029°16'0 0.0
2017-Dec-09 14:25N 40°51' E 029°16'0 0.0
2017-Dec-09 13:55N 40°51' E 029°16'0 0.0
2017-Dec-09 12:01N 40°51' E 029°16'0 0.0
2017-Dec-09 11:55N 40°51' E 029°16'0 0.0
2017-Dec-09 10:45N 40°51' E 029°16'0 0.0
2017-Dec-09 10:21N 40°51' E 029°16'0 0.0
2017-Dec-09 09:57N 40°51' E 029°16'0 0.0
2017-Dec-09 09:27N 40°51' E 029°16'0 0.0
2017-Dec-09 08:51N 40°51' E 029°16'  
Track history (hours):
 
Tides and Currents Weather Stations Pressure Air Temp Water Temp Dewpoint Dewpoint Depression Visibility Wind Speed Wind Dir Waves Ship Positions

Ranyus Sea

Last reported at 2017-Dec-15 02:31 UTC. Time now 2017-Dec-18 05:03 UTC.
Position N 43°32' E 028°44'.

Length 98 m; draft 5.6 m.

Type: Cargo ship. MMSI: 667001617.

Date/timePositionNaut miles runAvg speedWind from/ knotsBaromVisibWave heightAir tempDewpointWater temp
2017-Dec-15 02:31N 43°32' E 028°44'13 8.8
2017-Dec-15 01:01N 43°46' E 028°44'5 9.2
2017-Dec-15 00:31N 43°50' E 028°44'18 3.0
2017-Dec-14 18:28N 44°08' E 028°39'0 0.0
2017-Dec-14 17:58N 44°08' E 028°39'0 0.0
2017-Dec-14 17:28N 44°08' E 028°39'0 0.0
2017-Dec-14 16:58N 44°08' E 028°39'0 0.0
2017-Dec-14 16:28N 44°08' E 028°39'0 0.0
2017-Dec-14 15:58N 44°08' E 028°39'0 0.0
2017-Dec-14 07:45N 44°08' E 028°39'0 0.0
2017-Dec-14 07:30N 44°08' E 028°39'0 0.0
2017-Dec-14 07:00N 44°08' E 028°39'0 0.0
2017-Dec-14 06:30N 44°08' E 028°39'0 0.0
2017-Dec-14 06:00N 44°08' E 028°39'0 0.0
2017-Dec-14 05:27N 44°08' E 028°39'0 0.0
2017-Dec-14 05:00N 44°08' E 028°39'0 0.0
2017-Dec-14 04:30N 44°08' E 028°39'0 0.0
2017-Dec-14 04:00N 44°08' E 028°39'0 0.0
2017-Dec-14 03:30N 44°08' E 028°39'0 0.0
2017-Dec-14 03:00N 44°08' E 028°39'0 0.0
2017-Dec-14 02:30N 44°08' E 028°39'0 0.0
2017-Dec-14 01:45N 44°08' E 028°39'0 0.0
2017-Dec-14 01:30N 44°08' E 028°39'0 0.0
2017-Dec-14 01:00N 44°08' E 028°39'0 0.0
2017-Dec-14 00:30N 44°08' E 028°39'0 0.0
2017-Dec-13 23:57N 44°08' E 028°39'0 0.0
2017-Dec-13 23:27N 44°08' E 028°39'0 0.0
2017-Dec-13 22:57N 44°08' E 028°39'0 0.0
2017-Dec-13 22:30N 44°08' E 028°39'0 0.0
2017-Dec-13 22:00N 44°08' E 028°39'0 0.0
2017-Dec-13 21:27N 44°08' E 028°39'0 0.0
2017-Dec-13 21:00N 44°08' E 028°39'0 0.0
2017-Dec-13 20:27N 44°08' E 028°39'0 0.0
2017-Dec-13 20:00N 44°08' E 028°39'0 0.0
2017-Dec-13 19:30N 44°08' E 028°39'0 0.0
2017-Dec-13 18:57N 44°08' E 028°39'0 0.0
2017-Dec-13 18:30N 44°08' E 028°39'0 0.0
2017-Dec-13 18:00N 44°08' E 028°39'0 0.0
2017-Dec-13 17:30N 44°08' E 028°39'0 0.0
2017-Dec-13 17:00N 44°08' E 028°39'0 0.0
2017-Dec-13 16:30N 44°08' E 028°39'0 0.0
2017-Dec-13 16:00N 44°08' E 028°39'0 0.0
2017-Dec-13 15:30N 44°08' E 028°39'0 0.0
2017-Dec-13 15:00N 44°08' E 028°39'0 0.0
2017-Dec-13 14:30N 44°08' E 028°39'0 0.0
2017-Dec-13 13:48N 44°08' E 028°39'0 0.1
2017-Dec-13 13:24N 44°08' E 028°39'0 0.0
2017-Dec-13 12:57N 44°08' E 028°39'0 0.0
2017-Dec-13 12:21N 44°08' E 028°39'0 0.0
2017-Dec-13 11:52N 44°08' E 028°39'0 0.0
2017-Dec-13 11:28N 44°08' E 028°39'0 0.0
2017-Dec-12 14:11N 44°08' E 028°39'0 0.0
2017-Dec-12 13:59N 44°08' E 028°39'0 0.0
2017-Dec-12 13:29N 44°08' E 028°39'0 0.0
2017-Dec-12 12:59N 44°08' E 028°39'0 0.0
2017-Dec-12 12:20N 44°08' E 028°39'0 0.0
2017-Dec-12 11:59N 44°08' E 028°39'0 0.0
2017-Dec-12 11:29N 44°08' E 028°39'0 0.0
2017-Dec-12 10:56N 44°08' E 028°39'0 0.0
2017-Dec-12 10:29N 44°08' E 028°39'0 0.0
2017-Dec-12 09:59N 44°08' E 028°39'0 0.0
2017-Dec-12 09:29N 44°08' E 028°39'0 0.0
2017-Dec-12 08:59N 44°08' E 028°39'0 0.0
2017-Dec-12 08:29N 44°08' E 028°39'0 0.0
2017-Dec-12 07:59N 44°08' E 028°39'0 0.0
2017-Dec-12 07:29N 44°08' E 028°39'0 0.8
2017-Dec-12 07:00N 44°08' E 028°39'2 3.2
2017-Dec-12 06:30N 44°07' E 028°41'4 7.6
2017-Dec-12 06:00N 44°04' E 028°45'4 8.5
2017-Dec-12 05:30N 44°01' E 028°48'4 8.2
2017-Dec-12 05:00N 43°57' E 028°50'4 8.6
2017-Dec-12 04:30N 43°53' E 028°50'4 8.4
2017-Dec-12 04:00N 43°49' E 028°50'4 8.7
2017-Dec-12 03:30N 43°44' E 028°50'5 9.4
2017-Dec-12 03:00N 43°40' E 028°50'161 9.0
2017-Dec-11 09:09N 40°59' E 028°60'1 6.1
2017-Dec-11 08:57N 40°58' E 028°60'2 3.8
2017-Dec-11 08:30N 40°56' E 029°00'2 3.8
2017-Dec-11 08:00N 40°54' E 029°00'4 7.3
2017-Dec-11 07:30N 40°51' E 029°03'4 7.3
2017-Dec-11 07:00N 40°50' E 029°07'3 6.1
2017-Dec-11 06:30N 40°51' E 029°11'2 2.9
2017-Dec-11 05:56N 40°52' E 029°13'0 0.1
2017-Dec-11 05:26N 40°52' E 029°13'0 0.1
2017-Dec-11 04:56N 40°52' E 029°13'0 0.0
2017-Dec-11 04:26N 40°52' E 029°13'0 0.0
2017-Dec-11 03:56N 40°52' E 029°13'0 0.1
2017-Dec-11 03:26N 40°52' E 029°13'0 0.0
2017-Dec-11 02:56N 40°52' E 029°13'0 0.0
2017-Dec-11 02:26N 40°52' E 029°13'0 0.0
2017-Dec-11 01:56N 40°52' E 029°13'0 0.0
2017-Dec-11 01:26N 40°52' E 029°13'0 0.0
2017-Dec-11 00:50N 40°52' E 029°13'0 0.0
2017-Dec-11 00:20N 40°52' E 029°13'0 0.2
2017-Dec-10 23:56N 40°52' E 029°13'0 0.0
2017-Dec-10 23:26N 40°52' E 029°13'0 0.1
2017-Dec-10 22:56N 40°52' E 029°13'0 0.0
2017-Dec-10 22:20N 40°52' E 029°13'0 0.0
2017-Dec-10 21:50N 40°52' E 029°13'0 0.0
2017-Dec-10 21:20N 40°52' E 029°13'0 0.0
2017-Dec-10 20:56N 40°52' E 029°13'0 0.1
2017-Dec-10 20:26N 40°52' E 029°13'0 0.0
2017-Dec-10 19:56N 40°52' E 029°13'0 0.1
2017-Dec-10 19:26N 40°52' E 029°13'0 0.0
2017-Dec-10 18:56N 40°52' E 029°13'0 0.0
2017-Dec-10 18:08N 40°52' E 029°13'0 0.0
2017-Dec-10 17:44N 40°52' E 029°13'0 0.0
2017-Dec-10 17:26N 40°52' E 029°13'0 0.0
2017-Dec-10 16:56N 40°52' E 029°13'0 0.0
2017-Dec-10 16:14N 40°52' E 029°13'0 0.1
2017-Dec-10 15:56N 40°52' E 029°13'0 0.1
2017-Dec-10 15:14N 40°52' E 029°13'0 0.0
2017-Dec-10 14:56N 40°52' E 029°13'0 0.0
2017-Dec-10 14:20N 40°52' E 029°13'0 0.1
2017-Dec-10 13:50N 40°52' E 029°13'0 0.0
2017-Dec-10 13:26N 40°52' E 029°13'0 0.1
2017-Dec-10 12:56N 40°52' E 029°13'0 0.1
2017-Dec-10 12:26N 40°52' E 029°13'0 0.1
2017-Dec-10 11:50N 40°52' E 029°13'0 0.1
2017-Dec-10 11:20N 40°52' E 029°13'0 0.0
2017-Dec-10 10:56N 40°52' E 029°13'0 0.1
2017-Dec-10 10:26N 40°52' E 029°13'0 0.1
2017-Dec-10 09:56N 40°52' E 029°13'0 0.0
2017-Dec-10 09:20N 40°52' E 029°13'0 0.0
2017-Dec-10 08:56N 40°52' E 029°13'0 0.1
2017-Dec-10 08:14N 40°52' E 029°13'0 0.1
2017-Dec-10 07:54N 40°52' E 029°13'0 0.0
2017-Dec-10 07:24N 40°52' E 029°13'0 0.0
2017-Dec-10 07:00N 40°52' E 029°13'0 0.1
2017-Dec-10 06:30N 40°52' E 029°13'0 0.1
2017-Dec-10 05:54N 40°52' E 029°13'0 0.1
2017-Dec-10 05:30N 40°52' E 029°13'0 0.0
2017-Dec-10 05:00N 40°52' E 029°13'0 0.0
2017-Dec-10 04:30N 40°52' E 029°13'0 0.0
2017-Dec-10 04:00N 40°52' E 029°13'0 0.0
2017-Dec-10 03:30N 40°52' E 029°13'0 0.0
2017-Dec-10 03:00N 40°52' E 029°13'0 0.0
2017-Dec-10 02:24N 40°52' E 029°13'0 0.0
2017-Dec-10 02:00N 40°52' E 029°13'0 0.1
2017-Dec-10 01:30N 40°52' E 029°13'0 0.1
2017-Dec-10 01:00N 40°52' E 029°13'0 0.0
2017-Dec-10 00:30N 40°52' E 029°13'0 0.0
2017-Dec-09 23:54N 40°52' E 029°13'0 0.0
2017-Dec-09 23:30N 40°52' E 029°13'0 0.0
2017-Dec-09 22:54N 40°52' E 029°13'0 0.0
2017-Dec-09 22:30N 40°52' E 029°13'0 0.0
2017-Dec-09 22:00N 40°52' E 029°13'0 0.0
2017-Dec-09 21:30N 40°52' E 029°13'0 0.0
2017-Dec-09 20:54N 40°52' E 029°13'0 0.0
2017-Dec-09 20:30N 40°52' E 029°13'0 0.0
2017-Dec-09 20:00N 40°52' E 029°13'0 0.0
2017-Dec-09 19:30N 40°52' E 029°13'0 0.0
2017-Dec-09 19:00N 40°52' E 029°13'0 0.0
2017-Dec-09 18:30N 40°52' E 029°13'0 0.0
2017-Dec-09 17:54N 40°52' E 029°13'0 0.1
2017-Dec-09 17:30N 40°52' E 029°13'0 0.0
2017-Dec-09 17:00N 40°52' E 029°13'0 0.0
2017-Dec-09 16:30N 40°52' E 029°13'0 0.0
2017-Dec-09 16:00N 40°52' E 029°13'2 4.3
2017-Dec-09 15:30N 40°51' E 029°15'1 1.2
2017-Dec-09 14:49N 40°51' E 029°16'0 0.0
2017-Dec-09 14:25N 40°51' E 029°16'0 0.0
2017-Dec-09 13:55N 40°51' E 029°16'0 0.0
2017-Dec-09 12:01N 40°51' E 029°16'0 0.0
2017-Dec-09 11:55N 40°51' E 029°16'0 0.0
2017-Dec-09 10:45N 40°51' E 029°16'0 0.0
2017-Dec-09 10:21N 40°51' E 029°16'0 0.0
2017-Dec-09 09:57N 40°51' E 029°16'0 0.0
2017-Dec-09 09:27N 40°51' E 029°16'0 0.0
2017-Dec-09 08:51N 40°51' E 029°16'  

Dump ship's entire track history